Alvord, Texas
Current Conditions -  °F | °C
As of 7:55 PM on Monday 20 Oct 2014 (Local Time) from KLUD Reporting Station
Clear Clear  
Wind Chill: 71°   Ceiling: Unl
Heat Index: 71°   Visibility: 10mi
Dew Point: 58°   Wind: 3mph
Humidity: 64%   Direction: 130°SE
Pressure: 30.04"   Gusts: NA
Location:  33.36°N, 97.69°W
Report Text: KLUD 210055Z AUTO 13003KT 10SM CLR 22/15 A3004 RMK AO2 T02150145
Loading
Personal Weather Stations






























Interactive Weather Map New forecast layout! Learn more

10-Day Weather Forecast

Advertisements
Track Severe Weather on mobile